sensor_id;sensor_type;location;lat;lon;timestamp;pressure;altitude;pressure_sealevel;temperature;humidity
41945;BME280;63122;52.424;13.458;2023-03-14T00:01:46;98680.25;;;11.31;100.00
41945;BME280;63122;52.424;13.458;2023-03-14T00:03:42;98685.31;;;11.26;100.00
41945;BME280;63122;52.424;13.458;2023-03-14T00:05:39;98685.09;;;11.20;100.00
41945;BME280;63122;52.424;13.458;2023-03-14T00:07:35;98685.50;;;11.17;100.00
41945;BME280;63122;52.424;13.458;2023-03-14T00:09:34;98681.25;;;11.16;100.00
41945;BME280;63122;52.424;13.458;2023-03-14T00:11:30;98678.81;;;11.15;100.00
41945;BME280;63122;52.424;13.458;2023-03-14T00:13:28;98667.88;;;11.18;100.00
41945;BME280;63122;52.424;13.458;2023-03-14T00:15:29;98674.56;;;11.20;100.00
41945;BME280;63122;52.424;13.458;2023-03-14T00:17:26;98664.59;;;11.16;100.00
41945;BME280;63122;52.424;13.458;2023-03-14T00:19:22;98662.59;;;11.18;100.00
41945;BME280;63122;52.424;13.458;2023-03-14T00:21:18;98653.06;;;11.17;100.00
41945;BME280;63122;52.424;13.458;2023-03-14T00:23:14;98644.91;;;11.12;100.00
41945;BME280;63122;52.424;13.458;2023-03-14T00:25:13;98632.13;;;11.02;100.00
41945;BME280;63122;52.424;13.458;2023-03-14T00:27:09;98618.56;;;11.05;100.00
41945;BME280;63122;52.424;13.458;2023-03-14T00:29:05;98624.03;;;11.03;100.00
41945;BME280;63122;52.424;13.458;2023-03-14T00:31:02;98614.69;;;11.01;100.00
41945;BME280;63122;52.424;13.458;2023-03-14T00:32:58;98614.06;;;10.99;100.00
41945;BME280;63122;52.424;13.458;2023-03-14T00:34:54;98619.34;;;10.99;100.00
41945;BME280;63122;52.424;13.458;2023-03-14T00:36:49;98620.78;;;10.94;100.00
41945;BME280;63122;52.424;13.458;2023-03-14T00:38:46;98615.91;;;10.91;100.00
41945;BME280;63122;52.424;13.458;2023-03-14T00:40:45;98606.38;;;10.90;100.00
41945;BME280;63122;52.424;13.458;2023-03-14T00:42:40;98597.66;;;10.97;100.00
41945;BME280;63122;52.424;13.458;2023-03-14T00:44:36;98615.72;;;10.93;100.00
41945;BME280;63122;52.424;13.458;2023-03-14T00:46:31;98611.88;;;10.89;100.00
41945;BME280;63122;52.424;13.458;2023-03-14T00:48:27;98621.59;;;10.88;100.00
41945;BME280;63122;52.424;13.458;2023-03-14T00:50:23;98618.97;;;10.82;100.00
41945;BME280;63122;52.424;13.458;2023-03-14T00:52:18;98609.44;;;10.87;100.00
41945;BME280;63122;52.424;13.458;2023-03-14T00:54:13;98605.16;;;10.86;100.00
41945;BME280;63122;52.424;13.458;2023-03-14T00:56:12;98604.16;;;10.80;100.00
41945;BME280;63122;52.424;13.458;2023-03-14T00:58:07;98600.13;;;10.78;100.00
41945;BME280;63122;52.424;13.458;2023-03-14T01:00:04;98594.59;;;10.73;100.00
41945;BME280;63122;52.424;13.458;2023-03-14T01:02:03;98581.22;;;10.74;100.00
41945;BME280;63122;52.424;13.458;2023-03-14T01:03:58;98581.44;;;10.73;100.00
41945;BME280;63122;52.424;13.458;2023-03-14T01:05:54;98572.91;;;10.71;100.00
41945;BME280;63122;52.424;13.458;2023-03-14T01:07:49;98569.25;;;10.72;100.00
41945;BME280;63122;52.424;13.458;2023-03-14T01:09:44;98575.75;;;10.69;100.00
41945;BME280;63122;52.424;13.458;2023-03-14T01:11:42;98589.97;;;10.68;100.00
41945;BME280;63122;52.424;13.458;2023-03-14T01:13:38;98586.31;;;10.69;100.00
41945;BME280;63122;52.424;13.458;2023-03-14T01:15:35;98582.66;;;10.70;100.00
41945;BME280;63122;52.424;13.458;2023-03-14T01:17:31;98588.31;;;10.74;100.00
41945;BME280;63122;52.424;13.458;2023-03-14T01:19:26;98591.19;;;10.72;100.00
41945;BME280;63122;52.424;13.458;2023-03-14T01:21:24;98604.78;;;10.69;100.00
41945;BME280;63122;52.424;13.458;2023-03-14T01:23:19;98627.28;;;10.72;100.00
41945;BME280;63122;52.424;13.458;2023-03-14T01:25:16;98633.78;;;10.69;100.00
41945;BME280;63122;52.424;13.458;2023-03-14T01:27:15;98651.41;;;10.69;100.00
41945;BME280;63122;52.424;13.458;2023-03-14T01:29:09;98648.19;;;10.73;100.00
41945;BME280;63122;52.424;13.458;2023-03-14T01:31:07;98639.66;;;10.71;100.00
41945;BME280;63122;52.424;13.458;2023-03-14T01:33:03;98632.16;;;10.68;100.00
41945;BME280;63122;52.424;13.458;2023-03-14T01:34:58;98635.59;;;10.69;100.00
41945;BME280;63122;52.424;13.458;2023-03-14T01:36:53;98640.06;;;10.68;100.00
41945;BME280;63122;52.424;13.458;2023-03-14T01:38:49;98639.06;;;10.69;100.00
41945;BME280;63122;52.424;13.458;2023-03-14T01:40:44;98638.84;;;10.64;100.00
41945;BME280;63122;52.424;13.458;2023-03-14T01:42:54;98633.75;;;10.62;100.00
41945;BME280;63122;52.424;13.458;2023-03-14T01:44:51;98632.34;;;10.60;100.00
41945;BME280;63122;52.424;13.458;2023-03-14T01:46:47;98636.81;;;10.59;100.00
41945;BME280;63122;52.424;13.458;2023-03-14T01:48:45;98650.78;;;10.60;100.00
41945;BME280;63122;52.424;13.458;2023-03-14T01:50:43;98649.16;;;10.59;100.00
41945;BME280;63122;52.424;13.458;2023-03-14T01:52:40;98654.84;;;10.56;100.00
41945;BME280;63122;52.424;13.458;2023-03-14T01:54:41;98655.44;;;10.58;100.00
41945;BME280;63122;52.424;13.458;2023-03-14T01:56:38;98651.81;;;10.52;100.00
41945;BME280;63122;52.424;13.458;2023-03-14T01:58:38;98657.47;;;10.56;100.00
41945;BME280;63122;52.424;13.458;2023-03-14T02:00:34;98647.94;;;10.55;100.00
41945;BME280;63122;52.424;13.458;2023-03-14T02:02:29;98638.41;;;10.54;100.00
41945;BME280;63122;52.424;13.458;2023-03-14T02:04:28;98652.59;;;10.52;100.00
41945;BME280;63122;52.424;13.458;2023-03-14T02:06:27;98636.78;;;10.52;100.00
41945;BME280;63122;52.424;13.458;2023-03-14T02:08:24;98626.22;;;10.46;100.00
41945;BME280;63122;52.424;13.458;2023-03-14T02:10:21;98620.97;;;10.46;100.00
41945;BME280;63122;52.424;13.458;2023-03-14T02:12:18;98620.34;;;10.44;100.00
41945;BME280;63122;52.424;13.458;2023-03-14T02:14:25;98617.72;;;10.44;100.00
41945;BME280;63122;52.424;13.458;2023-03-14T02:16:23;98608.19;;;10.43;100.00
41945;BME280;63122;52.424;13.458;2023-03-14T02:18:18;98602.50;;;10.39;100.00
41945;BME280;63122;52.424;13.458;2023-03-14T02:20:23;98610.41;;;10.39;100.00
41945;BME280;63122;52.424;13.458;2023-03-14T02:22:22;98611.03;;;10.41;100.00
41945;BME280;63122;52.424;13.458;2023-03-14T02:24:24;98605.31;;;10.37;100.00
41945;BME280;63122;52.424;13.458;2023-03-14T02:26:24;98604.94;;;10.41;100.00
41945;BME280;63122;52.424;13.458;2023-03-14T02:28:25;98612.03;;;10.47;100.00
41945;BME280;63122;52.424;13.458;2023-03-14T02:30:21;98613.03;;;10.39;100.00
41945;BME280;63122;52.424;13.458;2023-03-14T02:32:19;98616.25;;;10.34;100.00
41945;BME280;63122;52.424;13.458;2023-03-14T02:34:15;98609.78;;;10.30;100.00
41945;BME280;63122;52.424;13.458;2023-03-14T02:36:13;98633.50;;;10.30;100.00
41945;BME280;63122;52.424;13.458;2023-03-14T02:38:15;98614.81;;;10.32;100.00
41945;BME280;63122;52.424;13.458;2023-03-14T02:40:13;98595.38;;;10.33;100.00
41945;BME280;63122;52.424;13.458;2023-03-14T02:42:08;98596.59;;;10.30;100.00
41945;BME280;63122;52.424;13.458;2023-03-14T02:44:06;98598.22;;;10.31;100.00
41945;BME280;63122;52.424;13.458;2023-03-14T02:46:02;98601.88;;;10.30;100.00
41945;BME280;63122;52.424;13.458;2023-03-14T02:48:02;98598.41;;;10.30;100.00
41945;BME280;63122;52.424;13.458;2023-03-14T02:50:05;98605.28;;;10.31;100.00
41945;BME280;63122;52.424;13.458;2023-03-14T02:52:01;98606.72;;;10.27;100.00
41945;BME280;63122;52.424;13.458;2023-03-14T02:53:57;98589.88;;;10.28;100.00
41945;BME280;63122;52.424;13.458;2023-03-14T02:55:52;98567.41;;;10.25;100.00
41945;BME280;63122;52.424;13.458;2023-03-14T02:57:48;98565.78;;;10.24;100.00
41945;BME280;63122;52.424;13.458;2023-03-14T02:59:46;98555.03;;;10.26;100.00
41945;BME280;63122;52.424;13.458;2023-03-14T03:01:42;98552.38;;;10.26;100.00
41945;BME280;63122;52.424;13.458;2023-03-14T03:03:37;98566.97;;;10.21;100.00
41945;BME280;63122;52.424;13.458;2023-03-14T03:05:33;98551.78;;;10.23;100.00
41945;BME280;63122;52.424;13.458;2023-03-14T03:07:28;98561.53;;;10.23;100.00
41945;BME280;63122;52.424;13.458;2023-03-14T03:09:24;98551.38;;;10.20;100.00
41945;BME280;63122;52.424;13.458;2023-03-14T03:11:19;98539.19;;;10.19;100.00
41945;BME280;63122;52.424;13.458;2023-03-14T03:13:15;98526.84;;;10.19;100.00
41945;BME280;63122;52.424;13.458;2023-03-14T03:15:14;98530.69;;;10.17;100.00
41945;BME280;63122;52.424;13.458;2023-03-14T03:17:09;98508.59;;;10.18;100.00
41945;BME280;63122;52.424;13.458;2023-03-14T03:19:05;98513.25;;;10.16;100.00
41945;BME280;63122;52.424;13.458;2023-03-14T03:21:01;98512.47;;;10.15;100.00
41945;BME280;63122;52.424;13.458;2023-03-14T03:22:58;98503.53;;;10.09;100.00
41945;BME280;63122;52.424;13.458;2023-03-14T03:24:54;98516.50;;;10.11;100.00
41945;BME280;63122;52.424;13.458;2023-03-14T03:26:49;98496.84;;;10.14;100.00
41945;BME280;63122;52.424;13.458;2023-03-14T03:28:45;98544.06;;;10.15;100.00
41945;BME280;63122;52.424;13.458;2023-03-14T03:30:43;98531.09;;;10.14;100.00
41945;BME280;63122;52.424;13.458;2023-03-14T03:32:39;98540.00;;;10.13;100.00
41945;BME280;63122;52.424;13.458;2023-03-14T03:34:35;98531.31;;;10.12;100.00
41945;BME280;63122;52.424;13.458;2023-03-14T03:36:31;98553.00;;;10.14;100.00
41945;BME280;63122;52.424;13.458;2023-03-14T03:38:26;98529.88;;;10.16;100.00
41945;BME280;63122;52.424;13.458;2023-03-14T03:40:22;98546.09;;;10.13;100.00
41945;BME280;63122;52.424;13.458;2023-03-14T03:42:17;98541.41;;;10.08;100.00
41945;BME280;63122;52.424;13.458;2023-03-14T03:44:13;98540.22;;;10.11;100.00
41945;BME280;63122;52.424;13.458;2023-03-14T03:46:11;98570.81;;;10.05;100.00
41945;BME280;63122;52.424;13.458;2023-03-14T03:48:07;98550.56;;;10.06;100.00
41945;BME280;63122;52.424;13.458;2023-03-14T03:50:03;98533.31;;;10.03;100.00
41945;BME280;63122;52.424;13.458;2023-03-14T03:51:59;98534.13;;;10.04;100.00
41945;BME280;63122;52.424;13.458;2023-03-14T03:53:55;98540.03;;;10.06;100.00
41945;BME280;63122;52.424;13.458;2023-03-14T03:55:51;98533.09;;;10.05;100.00
41945;BME280;63122;52.424;13.458;2023-03-14T03:57:46;98539.19;;;9.99;100.00
41945;BME280;63122;52.424;13.458;2023-03-14T03:59:42;98539.19;;;9.99;100.00
41945;BME280;63122;52.424;13.458;2023-03-14T04:01:40;98534.31;;;10.02;100.00
41945;BME280;63122;52.424;13.458;2023-03-14T04:03:36;98532.50;;;10.03;100.00
41945;BME280;63122;52.424;13.458;2023-03-14T04:05:35;98548.69;;;10.00;100.00
41945;BME280;63122;52.424;13.458;2023-03-14T04:07:31;98537.16;;;10.01;100.00
41945;BME280;63122;52.424;13.458;2023-03-14T04:09:27;98545.28;;;9.99;100.00
41945;BME280;63122;52.424;13.458;2023-03-14T04:11:22;98512.84;;;9.99;100.00
41945;BME280;63122;52.424;13.458;2023-03-14T04:13:17;98535.53;;;9.93;100.00
41945;BME280;63122;52.424;13.458;2023-03-14T04:15:13;98527.81;;;9.91;100.00
41945;BME280;63122;52.424;13.458;2023-03-14T04:17:11;98520.34;;;9.95;100.00
41945;BME280;63122;52.424;13.458;2023-03-14T04:19:06;98526.63;;;9.94;100.00
41945;BME280;63122;52.424;13.458;2023-03-14T04:21:01;98513.47;;;9.94;100.00
41945;BME280;63122;52.424;13.458;2023-03-14T04:22:56;98511.63;;;9.94;100.00
41945;BME280;63122;52.424;13.458;2023-03-14T04:24:51;98511.41;;;9.89;100.00
41945;BME280;63122;52.424;13.458;2023-03-14T04:26:47;98502.06;;;9.87;100.00
41945;BME280;63122;52.424;13.458;2023-03-14T04:28:42;98509.38;;;9.85;100.00
41945;BME280;63122;52.424;13.458;2023-03-14T04:30:37;98515.66;;;9.84;100.00
41945;BME280;63122;52.424;13.458;2023-03-14T04:32:35;98505.31;;;9.82;100.00
41945;BME280;63122;52.424;13.458;2023-03-14T04:34:30;98506.72;;;9.85;100.00
41945;BME280;63122;52.424;13.458;2023-03-14T04:36:25;98498.84;;;9.85;100.00
41945;BME280;63122;52.424;13.458;2023-03-14T04:38:21;98493.56;;;9.85;100.00
41945;BME280;63122;52.424;13.458;2023-03-14T04:40:16;98491.75;;;9.85;100.00
41945;BME280;63122;52.424;13.458;2023-03-14T04:42:11;98482.88;;;9.93;100.00
41945;BME280;63122;52.424;13.458;2023-03-14T04:44:06;98492.38;;;9.87;100.00
41945;BME280;63122;52.424;13.458;2023-03-14T04:46:01;98487.28;;;9.86;100.00
41945;BME280;63122;52.424;13.458;2023-03-14T04:47:59;98474.53;;;9.89;100.00
41945;BME280;63122;52.424;13.458;2023-03-14T04:49:54;98468.25;;;9.84;100.00
41945;BME280;63122;52.424;13.458;2023-03-14T04:51:49;98464.81;;;9.83;100.00
41945;BME280;63122;52.424;13.458;2023-03-14T04:53:45;98464.19;;;9.88;100.00
41945;BME280;63122;52.424;13.458;2023-03-14T04:55:40;98450.63;;;9.84;100.00
41945;BME280;63122;52.424;13.458;2023-03-14T04:57:36;98460.97;;;9.79;100.00
41945;BME280;63122;52.424;13.458;2023-03-14T04:59:30;98445.53;;;9.76;100.00
41945;BME280;63122;52.424;13.458;2023-03-14T05:01:26;98450.81;;;9.76;100.00
41945;BME280;63122;52.424;13.458;2023-03-14T05:03:23;98461.16;;;9.77;100.00
41945;BME280;63122;52.424;13.458;2023-03-14T05:05:19;98455.47;;;9.74;100.00
41945;BME280;63122;52.424;13.458;2023-03-14T05:07:14;98469.47;;;9.74;100.00
41945;BME280;63122;52.424;13.458;2023-03-14T05:09:09;98481.41;;;9.70;100.00
41945;BME280;63122;52.424;13.458;2023-03-14T05:11:05;98477.53;;;9.73;100.00
41945;BME280;63122;52.424;13.458;2023-03-14T05:13:00;98480.00;;;9.74;100.00
41945;BME280;63122;52.424;13.458;2023-03-14T05:14:56;98468.03;;;9.72;100.00
41945;BME280;63122;52.424;13.458;2023-03-14T05:16:51;98471.88;;;9.69;100.00
41945;BME280;63122;52.424;13.458;2023-03-14T05:18:49;98463.97;;;9.69;100.00
41945;BME280;63122;52.424;13.458;2023-03-14T05:20:45;98444.31;;;9.72;100.00
41945;BME280;63122;52.424;13.458;2023-03-14T05:22:41;98446.38;;;9.76;100.00
41945;BME280;63122;52.424;13.458;2023-03-14T05:24:37;98434.63;;;9.79;100.00
41945;BME280;63122;52.424;13.458;2023-03-14T05:26:32;98452.03;;;9.73;100.00
41945;BME280;63122;52.424;13.458;2023-03-14T05:28:27;98445.53;;;9.76;100.00
41945;BME280;63122;52.424;13.458;2023-03-14T05:30:22;98443.91;;;9.75;100.00
41945;BME280;63122;52.424;13.458;2023-03-14T05:32:18;98435.41;;;9.73;100.00
41945;BME280;63122;52.424;13.458;2023-03-14T05:34:15;98447.56;;;9.74;100.00
41945;BME280;63122;52.424;13.458;2023-03-14T05:36:11;98439.66;;;9.74;100.00
41945;BME280;63122;52.424;13.458;2023-03-14T05:38:07;98451.44;;;9.71;100.00
41945;BME280;63122;52.424;13.458;2023-03-14T05:40:03;98440.69;;;9.73;100.00
41945;BME280;63122;52.424;13.458;2023-03-14T05:41:58;98444.31;;;9.72;100.00
41945;BME280;63122;52.424;13.458;2023-03-14T05:43:53;98438.25;;;9.71;100.00
41945;BME280;63122;52.424;13.458;2023-03-14T05:45:48;98449.59;;;9.72;100.00
41945;BME280;63122;52.424;13.458;2023-03-14T05:47:44;98449.19;;;9.68;100.00
41945;BME280;63122;52.424;13.458;2023-03-14T05:49:41;98445.94;;;9.73;100.00
41945;BME280;63122;52.424;13.458;2023-03-14T05:51:37;98450.59;;;9.71;100.00
41945;BME280;63122;52.424;13.458;2023-03-14T05:53:32;98459.34;;;9.78;100.00
41945;BME280;63122;52.424;13.458;2023-03-14T05:55:27;98450.00;;;9.75;100.00
41945;BME280;63122;52.424;13.458;2023-03-14T05:57:22;98445.75;;;9.74;100.00
41945;BME280;63122;52.424;13.458;2023-03-14T05:59:17;98447.38;;;9.75;100.00
41945;BME280;63122;52.424;13.458;2023-03-14T06:01:12;98433.19;;;9.76;100.00
41945;BME280;63122;52.424;13.458;2023-03-14T06:03:08;98433.38;;;9.75;100.00
41945;BME280;63122;52.424;13.458;2023-03-14T06:05:07;98436.03;;;9.75;100.00
41945;BME280;63122;52.424;13.458;2023-03-14T06:07:02;98439.06;;;9.78;100.00
41945;BME280;63122;52.424;13.458;2023-03-14T06:08:57;98433.81;;;9.78;100.00
41945;BME280;63122;52.424;13.458;2023-03-14T06:10:53;98437.28;;;9.79;100.00
41945;BME280;63122;52.424;13.458;2023-03-14T06:12:48;98442.91;;;9.83;100.00
41945;BME280;63122;52.424;13.458;2023-03-14T06:14:43;98435.84;;;9.83;100.00
41945;BME280;63122;52.424;13.458;2023-03-14T06:16:39;98441.72;;;9.85;100.00
41945;BME280;63122;52.424;13.458;2023-03-14T06:18:34;98427.31;;;9.88;100.00
41945;BME280;63122;52.424;13.458;2023-03-14T06:20:32;98432.19;;;9.91;100.00
41945;BME280;63122;52.424;13.458;2023-03-14T06:22:28;98447.38;;;9.89;100.00
41945;BME280;63122;52.424;13.458;2023-03-14T06:24:24;98440.91;;;9.98;100.00
41945;BME280;63122;52.424;13.458;2023-03-14T06:26:19;98441.72;;;9.99;100.00
41945;BME280;63122;52.424;13.458;2023-03-14T06:28:15;98455.09;;;9.97;100.00
41945;BME280;63122;52.424;13.458;2023-03-14T06:30:11;98435.66;;;9.98;100.00
41945;BME280;63122;52.424;13.458;2023-03-14T06:32:06;98442.53;;;9.99;100.00
41945;BME280;63122;52.424;13.458;2023-03-14T06:34:02;98444.97;;;10.01;100.00
41945;BME280;63122;52.424;13.458;2023-03-14T06:36:00;98455.09;;;10.04;100.00
41945;BME280;63122;52.424;13.458;2023-03-14T06:37:56;98441.53;;;10.07;100.00
41945;BME280;63122;52.424;13.458;2023-03-14T06:39:51;98454.06;;;10.05;100.00
41945;BME280;63122;52.424;13.458;2023-03-14T06:41:47;98452.25;;;10.05;100.00
41945;BME280;63122;52.424;13.458;2023-03-14T06:43:42;98444.78;;;10.09;100.00
41945;BME280;63122;52.424;13.458;2023-03-14T06:45:38;98446.19;;;10.12;100.00
41945;BME280;63122;52.424;13.458;2023-03-14T06:47:33;98456.53;;;10.13;100.00
41945;BME280;63122;52.424;13.458;2023-03-14T06:49:28;98448.41;;;10.15;100.00
41945;BME280;63122;52.424;13.458;2023-03-14T06:51:26;98469.28;;;10.16;100.00
41945;BME280;63122;52.424;13.458;2023-03-14T06:53:21;98471.53;;;10.19;100.00
41945;BME280;63122;52.424;13.458;2023-03-14T06:55:17;98458.34;;;10.19;100.00
41945;BME280;63122;52.424;13.458;2023-03-14T06:57:14;98476.59;;;10.21;100.00
41945;BME280;63122;52.424;13.458;2023-03-14T06:59:09;98498.06;;;10.25;100.00
41945;BME280;63122;52.424;13.458;2023-03-14T07:01:05;98506.56;;;10.27;100.00
41945;BME280;63122;52.424;13.458;2023-03-14T07:03:00;98470.50;;;10.27;100.00
41945;BME280;63122;52.424;13.458;2023-03-14T07:04:55;98466.84;;;10.28;100.00
41945;BME280;63122;52.424;13.458;2023-03-14T07:06:53;98473.75;;;10.29;100.00
41945;BME280;63122;52.424;13.458;2023-03-14T07:08:49;98476.38;;;10.29;100.00
41945;BME280;63122;52.424;13.458;2023-03-14T07:10:43;98478.19;;;10.29;100.00
41945;BME280;63122;52.424;13.458;2023-03-14T07:12:39;98493.22;;;10.28;100.00
41945;BME280;63122;52.424;13.458;2023-03-14T07:14:34;98486.31;;;10.27;100.00
41945;BME280;63122;52.424;13.458;2023-03-14T07:16:29;98495.44;;;10.25;100.00
41945;BME280;63122;52.424;13.458;2023-03-14T07:18:25;98498.06;;;10.25;100.00
41945;BME280;63122;52.424;13.458;2023-03-14T07:20:20;98492.78;;;10.25;100.00
41945;BME280;63122;52.424;13.458;2023-03-14T07:22:17;98488.53;;;10.30;100.00
41945;BME280;63122;52.424;13.458;2023-03-14T07:24:13;98494.22;;;10.27;100.00
41945;BME280;63122;52.424;13.458;2023-03-14T07:26:08;98488.53;;;10.30;100.00
41945;BME280;63122;52.424;13.458;2023-03-14T07:28:03;98497.47;;;10.29;100.00
41945;BME280;63122;52.424;13.458;2023-03-14T07:29:58;98504.78;;;10.27;100.00
41945;BME280;63122;52.424;13.458;2023-03-14T07:31:53;98503.75;;;10.28;100.00
41945;BME280;63122;52.424;13.458;2023-03-14T07:33:49;98495.63;;;10.30;100.00
41945;BME280;63122;52.424;13.458;2023-03-14T07:35:44;98500.28;;;10.28;100.00
41945;BME280;63122;52.424;13.458;2023-03-14T07:37:43;98519.34;;;10.30;100.00
41945;BME280;63122;52.424;13.458;2023-03-14T07:39:39;98511.66;;;10.28;100.00
41945;BME280;63122;52.424;13.458;2023-03-14T07:41:33;98506.16;;;10.30;100.00
41945;BME280;63122;52.424;13.458;2023-03-14T07:43:29;98497.47;;;10.29;100.00
41945;BME280;63122;52.424;13.458;2023-03-14T07:45:26;98508.41;;;10.26;100.00
41945;BME280;63122;52.424;13.458;2023-03-14T07:47:22;98501.50;;;10.32;100.00
41945;BME280;63122;52.424;13.458;2023-03-14T07:49:17;98495.44;;;10.31;100.00
41945;BME280;63122;52.424;13.458;2023-03-14T07:51:12;98505.75;;;10.33;100.00
41945;BME280;63122;52.424;13.458;2023-03-14T07:53:10;98508.63;;;10.31;100.00
41945;BME280;63122;52.424;13.458;2023-03-14T07:55:06;98503.34;;;10.38;100.00
41945;BME280;63122;52.424;13.458;2023-03-14T07:57:01;98500.91;;;10.36;100.00
41945;BME280;63122;52.424;13.458;2023-03-14T07:58:57;98502.13;;;10.34;100.00
41945;BME280;63122;52.424;13.458;2023-03-14T08:00:52;98504.78;;;10.41;100.00
41945;BME280;63122;52.424;13.458;2023-03-14T08:02:48;98522.22;;;10.42;100.00
41945;BME280;63122;52.424;13.458;2023-03-14T08:04:43;98502.94;;;10.55;100.00
41945;BME280;63122;52.424;13.458;2023-03-14T08:06:38;98497.47;;;10.56;100.00
41945;BME280;63122;52.424;13.458;2023-03-14T08:08:36;98495.03;;;10.61;100.00
41945;BME280;63122;52.424;13.458;2023-03-14T08:10:31;98501.94;;;10.62;100.00
41945;BME280;63122;52.424;13.458;2023-03-14T08:12:27;98493.84;;;10.64;100.00
41945;BME280;63122;52.424;13.458;2023-03-14T08:14:22;98485.28;;;10.69;100.00
41945;BME280;63122;52.424;13.458;2023-03-14T08:16:18;98494.63;;;10.64;100.00
41945;BME280;63122;52.424;13.458;2023-03-14T08:18:13;98477.19;;;10.63;100.00
41945;BME280;63122;52.424;13.458;2023-03-14T08:20:10;98476.38;;;10.63;100.00
41945;BME280;63122;52.424;13.458;2023-03-14T08:22:05;98490.16;;;10.72;100.00
41945;BME280;63122;52.424;13.458;2023-03-14T08:24:03;98485.28;;;10.75;100.00
41945;BME280;63122;52.424;13.458;2023-03-14T08:25:58;98481.03;;;10.74;100.00
41945;BME280;63122;52.424;13.458;2023-03-14T08:27:54;98472.50;;;10.79;100.00
41945;BME280;63122;52.424;13.458;2023-03-14T08:29:49;98475.94;;;10.86;100.00
41945;BME280;63122;52.424;13.458;2023-03-14T08:31:44;98481.41;;;10.85;100.00
41945;BME280;63122;52.424;13.458;2023-03-14T08:33:41;98500.50;;;10.80;100.00
41945;BME280;63122;52.424;13.458;2023-03-14T08:35:37;98488.31;;;10.79;100.00
41945;BME280;63122;52.424;13.458;2023-03-14T08:37:33;98497.25;;;10.78;100.00
41945;BME280;63122;52.424;13.458;2023-03-14T08:39:31;98504.16;;;10.79;100.00
41945;BME280;63122;52.424;13.458;2023-03-14T08:41:26;98512.84;;;10.79;100.00
41945;BME280;63122;52.424;13.458;2023-03-14T08:43:22;98502.06;;;10.88;100.00
41945;BME280;63122;52.424;13.458;2023-03-14T08:45:17;98500.69;;;10.78;100.00
41945;BME280;63122;52.424;13.458;2023-03-14T08:47:13;98514.47;;;10.80;100.00
41945;BME280;63122;52.424;13.458;2023-03-14T08:49:08;98497.44;;;10.83;100.00
41945;BME280;63122;52.424;13.458;2023-03-14T08:51:05;98501.09;;;10.89;100.00
41945;BME280;63122;52.424;13.458;2023-03-14T08:53:00;98495.59;;;10.90;100.00
41945;BME280;63122;52.424;13.458;2023-03-14T08:54:58;98506.97;;;10.91;100.00
41945;BME280;63122;52.424;13.458;2023-03-14T08:56:54;98505.13;;;10.85;100.00
41945;BME280;63122;52.424;13.458;2023-03-14T08:58:49;98503.91;;;10.87;100.00
41945;BME280;63122;52.424;13.458;2023-03-14T09:00:45;98518.13;;;10.86;100.00
41945;BME280;63122;52.424;13.458;2023-03-14T09:02:40;98511.44;;;10.84;100.00
41945;BME280;63122;52.424;13.458;2023-03-14T09:04:35;98517.13;;;10.80;100.00
41945;BME280;63122;52.424;13.458;2023-03-14T09:06:30;98502.91;;;10.88;100.00
41945;BME280;63122;52.424;13.458;2023-03-14T09:08:26;98504.53;;;10.83;100.00
41945;BME280;63122;52.424;13.458;2023-03-14T09:10:23;98496.41;;;10.91;100.00
41945;BME280;63122;52.424;13.458;2023-03-14T09:12:19;98493.38;;;10.94;100.00
41945;BME280;63122;52.424;13.458;2023-03-14T09:14:13;98510.16;;;11.00;100.00
41945;BME280;63122;52.424;13.458;2023-03-14T09:16:09;98510.78;;;11.02;100.00
41945;BME280;63122;52.424;13.458;2023-03-14T09:18:04;98478.69;;;11.12;100.00
41945;BME280;63122;52.424;13.458;2023-03-14T09:20:00;98476.78;;;11.26;100.00
41945;BME280;63122;52.424;13.458;2023-03-14T09:21:57;98477.78;;;11.38;100.00
41945;BME280;63122;52.424;13.458;2023-03-14T09:23:53;98469.59;;;11.46;100.00
41945;BME280;63122;52.424;13.458;2023-03-14T09:25:54;98473.56;;;11.62;100.00
41945;BME280;63122;52.424;13.458;2023-03-14T09:27:49;98464.16;;;11.73;100.00
41945;BME280;63122;52.424;13.458;2023-03-14T09:29:44;98475.88;;;11.84;100.00
41945;BME280;63122;52.424;13.458;2023-03-14T09:31:39;98473.13;;;11.98;100.00
41945;BME280;63122;52.424;13.458;2023-03-14T09:33:35;98502.44;;;12.03;100.00
41945;BME280;63122;52.424;13.458;2023-03-14T09:35:30;98476.13;;;12.15;100.00
41945;BME280;63122;52.424;13.458;2023-03-14T09:37:27;98472.81;;;12.19;100.00
41945;BME280;63122;52.424;13.458;2023-03-14T09:39:23;98484.66;;;12.35;100.00
41945;BME280;63122;52.424;13.458;2023-03-14T09:41:23;98494.66;;;12.59;100.00
41945;BME280;63122;52.424;13.458;2023-03-14T09:43:22;98493.38;;;12.43;100.00
41945;BME280;63122;52.424;13.458;2023-03-14T09:45:24;98483.66;;;12.36;100.00
41945;BME280;63122;52.424;13.458;2023-03-14T09:47:20;98477.44;;;12.49;100.00
41945;BME280;63122;52.424;13.458;2023-03-14T09:49:20;98483.34;;;12.70;100.00
41945;BME280;63122;52.424;13.458;2023-03-14T09:51:17;98476.53;;;12.81;100.00
41945;BME280;63122;52.424;13.458;2023-03-14T09:53:18;98471.59;;;12.66;100.00
41945;BME280;63122;52.424;13.458;2023-03-14T09:55:16;98480.41;;;12.60;100.00
41945;BME280;63122;52.424;13.458;2023-03-14T09:57:17;98485.94;;;12.51;100.00
41945;BME280;63122;52.424;13.458;2023-03-14T09:59:13;98480.41;;;12.34;100.00
41945;BME280;63122;52.424;13.458;2023-03-14T10:01:11;98490.78;;;12.36;100.00
41945;BME280;63122;52.424;13.458;2023-03-14T10:03:29;98479.97;;;12.37;100.00